sensor_id;sensor_type;location;lat;lon;timestamp;pressure;altitude;pressure_sealevel;temperature;humidity
29461;BME280;16428;47.836;35.106;2023-06-22T00:00:26;101397.41;;;21.58;98.88
29461;BME280;16428;47.836;35.106;2023-06-22T00:02:55;101399.19;;;21.52;99.53
29461;BME280;16428;47.836;35.106;2023-06-22T00:05:22;101403.44;;;21.48;100.00
29461;BME280;16428;47.836;35.106;2023-06-22T00:07:50;101394.78;;;21.51;99.79
29461;BME280;16428;47.836;35.106;2023-06-22T00:10:17;101393.13;;;21.50;100.00
29461;BME280;16428;47.836;35.106;2023-06-22T00:12:44;101394.88;;;21.45;100.00
29461;BME280;16428;47.836;35.106;2023-06-22T00:15:12;101402.09;;;21.39;100.00
29461;BME280;16428;47.836;35.106;2023-06-22T00:17:39;101406.50;;;21.40;100.00
29461;BME280;16428;47.836;35.106;2023-06-22T00:20:08;101396.03;;;21.37;100.00
29461;BME280;16428;47.836;35.106;2023-06-22T00:22:37;101402.41;;;21.31;100.00
29461;BME280;16428;47.836;35.106;2023-06-22T00:25:07;101411.69;;;21.30;100.00
29461;BME280;16428;47.836;35.106;2023-06-22T00:27:35;101404.31;;;21.30;100.00
29461;BME280;16428;47.836;35.106;2023-06-22T00:30:03;101405.59;;;21.28;100.00
29461;BME280;16428;47.836;35.106;2023-06-22T00:32:31;101404.41;;;21.24;100.00
29461;BME280;16428;47.836;35.106;2023-06-22T00:34:58;101415.81;;;21.21;100.00
29461;BME280;16428;47.836;35.106;2023-06-22T00:37:25;101424.13;;;21.26;100.00
29461;BME280;16428;47.836;35.106;2023-06-22T00:39:52;101414.53;;;21.23;100.00
29461;BME280;16428;47.836;35.106;2023-06-22T00:42:20;101408.88;;;21.18;100.00
29461;BME280;16428;47.836;35.106;2023-06-22T00:44:47;101404.09;;;21.14;100.00
29461;BME280;16428;47.836;35.106;2023-06-22T00:47:16;101402.59;;;20.99;100.00
29461;BME280;16428;47.836;35.106;2023-06-22T00:49:45;101407.75;;;21.08;100.00
29461;BME280;16428;47.836;35.106;2023-06-22T00:52:14;101413.22;;;21.08;100.00
29461;BME280;16428;47.836;35.106;2023-06-22T00:54:48;101416.47;;;20.98;100.00
29461;BME280;16428;47.836;35.106;2023-06-22T00:57:17;101414.91;;;20.90;100.00
29461;BME280;16428;47.836;35.106;2023-06-22T00:59:45;101416.84;;;21.01;100.00
29461;BME280;16428;47.836;35.106;2023-06-22T01:02:12;101414.81;;;20.97;100.00
29461;BME280;16428;47.836;35.106;2023-06-22T01:04:40;101418.38;;;20.97;100.00
29461;BME280;16428;47.836;35.106;2023-06-22T01:07:33;101405.66;;;20.91;100.00
29461;BME280;16428;47.836;35.106;2023-06-22T01:10:13;101408.50;;;20.96;100.00
29461;BME280;16428;47.836;35.106;2023-06-22T01:12:48;101414.28;;;20.88;100.00
29461;BME280;16428;47.836;35.106;2023-06-22T01:15:30;101420.88;;;20.99;100.00
29461;BME280;16428;47.836;35.106;2023-06-22T01:17:59;101417.41;;;20.92;100.00
29461;BME280;16428;47.836;35.106;2023-06-22T01:20:29;101416.41;;;20.86;100.00
29461;BME280;16428;47.836;35.106;2023-06-22T01:23:21;101413.28;;;20.83;99.89
29461;BME280;16428;47.836;35.106;2023-06-22T01:28:46;101416.69;;;20.78;98.95
29461;BME280;16428;47.836;35.106;2023-06-22T01:31:17;101423.91;;;20.73;98.09
29461;BME280;16428;47.836;35.106;2023-06-22T01:33:50;101424.31;;;20.76;97.91
29461;BME280;16428;47.836;35.106;2023-06-22T01:36:18;101423.00;;;20.79;97.75
29461;BME280;16428;47.836;35.106;2023-06-22T01:38:47;101418.13;;;20.81;95.34
29461;BME280;16428;47.836;35.106;2023-06-22T01:41:16;101431.88;;;20.74;95.03
29461;BME280;16428;47.836;35.106;2023-06-22T01:43:45;101429.38;;;20.73;95.61
29461;BME280;16428;47.836;35.106;2023-06-22T01:46:13;101432.00;;;20.79;93.68
29461;BME280;16428;47.836;35.106;2023-06-22T01:48:41;101429.38;;;20.73;94.62
29461;BME280;16428;47.836;35.106;2023-06-22T01:51:09;101433.63;;;20.68;94.78
29461;BME280;16428;47.836;35.106;2023-06-22T01:53:37;101437.41;;;20.67;94.56
29461;BME280;16428;47.836;35.106;2023-06-22T01:56:04;101432.47;;;20.58;95.79
29461;BME280;16428;47.836;35.106;2023-06-22T01:58:32;101431.69;;;20.51;95.22
29461;BME280;16428;47.836;35.106;2023-06-22T02:01:10;101438.16;;;20.56;95.25
29461;BME280;16428;47.836;35.106;2023-06-22T02:03:44;101454.59;;;20.50;93.66
29461;BME280;16428;47.836;35.106;2023-06-22T02:06:25;101443.16;;;20.59;93.63
29461;BME280;16428;47.836;35.106;2023-06-22T02:08:59;101446.34;;;20.56;94.49
29461;BME280;16428;47.836;35.106;2023-06-22T02:11:28;101452.47;;;20.52;94.15
29461;BME280;16428;47.836;35.106;2023-06-22T02:13:58;101457.94;;;20.52;93.88
29461;BME280;16428;47.836;35.106;2023-06-22T02:16:26;101461.09;;;20.49;94.68
29461;BME280;16428;47.836;35.106;2023-06-22T02:18:56;101463.56;;;20.57;93.84
29461;BME280;16428;47.836;35.106;2023-06-22T02:21:30;101459.19;;;20.49;93.61
29461;BME280;16428;47.836;35.106;2023-06-22T02:23:58;101462.44;;;20.40;93.96
29461;BME280;16428;47.836;35.106;2023-06-22T02:26:26;101461.78;;;20.44;93.46
29461;BME280;16428;47.836;35.106;2023-06-22T02:28:54;101461.94;;;20.49;94.27
29461;BME280;16428;47.836;35.106;2023-06-22T02:31:21;101455.09;;;20.40;95.01
29461;BME280;16428;47.836;35.106;2023-06-22T02:33:48;101465.34;;;20.45;94.02
29461;BME280;16428;47.836;35.106;2023-06-22T02:36:15;101474.97;;;20.47;94.15
29461;BME280;16428;47.836;35.106;2023-06-22T02:38:43;101483.44;;;20.39;94.46
29461;BME280;16428;47.836;35.106;2023-06-22T02:41:16;101486.88;;;20.53;92.64
29461;BME280;16428;47.836;35.106;2023-06-22T02:43:45;101488.34;;;20.55;92.77
29461;BME280;16428;47.836;35.106;2023-06-22T02:46:13;101492.97;;;20.55;92.11
29461;BME280;16428;47.836;35.106;2023-06-22T02:48:40;101491.75;;;20.51;94.36
29461;BME280;16428;47.836;35.106;2023-06-22T02:51:12;101500.16;;;20.49;92.73
29461;BME280;16428;47.836;35.106;2023-06-22T02:53:40;101496.75;;;20.54;91.48
29461;BME280;16428;47.836;35.106;2023-06-22T02:56:11;101503.88;;;20.55;90.82
29461;BME280;16428;47.836;35.106;2023-06-22T02:58:39;101512.06;;;20.55;90.39
29461;BME280;16428;47.836;35.106;2023-06-22T03:01:07;101513.66;;;20.62;90.40
29461;BME280;16428;47.836;35.106;2023-06-22T03:03:34;101511.78;;;20.63;90.95
29461;BME280;16428;47.836;35.106;2023-06-22T03:06:02;101513.44;;;20.64;91.68
29461;BME280;16428;47.836;35.106;2023-06-22T03:08:30;101517.84;;;20.65;91.35
29461;BME280;16428;47.836;35.106;2023-06-22T03:10:58;101526.00;;;20.71;90.06
29461;BME280;16428;47.836;35.106;2023-06-22T03:13:27;101531.38;;;20.78;89.26
29461;BME280;16428;47.836;35.106;2023-06-22T03:15:54;101525.69;;;20.80;89.73
29461;BME280;16428;47.836;35.106;2023-06-22T03:18:21;101532.22;;;20.79;89.19
29461;BME280;16428;47.836;35.106;2023-06-22T03:20:49;101528.81;;;20.83;89.59
29461;BME280;16428;47.836;35.106;2023-06-22T03:23:16;101532.28;;;20.72;88.26
29461;BME280;16428;47.836;35.106;2023-06-22T03:25:43;101538.50;;;20.79;88.87
29461;BME280;16428;47.836;35.106;2023-06-22T03:28:13;101536.34;;;20.88;87.93
29461;BME280;16428;47.836;35.106;2023-06-22T03:30:40;101534.69;;;20.87;85.63
29461;BME280;16428;47.836;35.106;2023-06-22T03:33:07;101540.84;;;21.00;84.83
29461;BME280;16428;47.836;35.106;2023-06-22T03:35:35;101539.09;;;21.06;83.55
29461;BME280;16428;47.836;35.106;2023-06-22T03:38:02;101541.00;;;21.05;81.44
29461;BME280;16428;47.836;35.106;2023-06-22T03:40:29;101539.84;;;20.95;80.26
29461;BME280;16428;47.836;35.106;2023-06-22T03:42:57;101544.47;;;21.13;81.86
29461;BME280;16428;47.836;35.106;2023-06-22T03:45:24;101538.63;;;21.09;81.05
29461;BME280;16428;47.836;35.106;2023-06-22T03:47:51;101547.44;;;21.11;79.97
29461;BME280;16428;47.836;35.106;2023-06-22T03:50:18;101551.94;;;21.24;79.97
29461;BME280;16428;47.836;35.106;2023-06-22T03:52:47;101555.63;;;21.36;77.37
29461;BME280;16428;47.836;35.106;2023-06-22T03:55:14;101556.81;;;21.40;75.34
29461;BME280;16428;47.836;35.106;2023-06-22T03:57:41;101558.03;;;21.44;76.04
29461;BME280;16428;47.836;35.106;2023-06-22T04:00:08;101560.47;;;21.52;71.64
29461;BME280;16428;47.836;35.106;2023-06-22T04:02:38;101564.72;;;21.66;72.69
29461;BME280;16428;47.836;35.106;2023-06-22T04:05:05;101572.22;;;21.71;72.23
29461;BME280;16428;47.836;35.106;2023-06-22T04:07:33;101571.97;;;21.91;71.87
29461;BME280;16428;47.836;35.106;2023-06-22T04:10:01;101571.06;;;21.97;71.76
29461;BME280;16428;47.836;35.106;2023-06-22T04:12:28;101576.53;;;21.97;72.66
29461;BME280;16428;47.836;35.106;2023-06-22T04:14:55;101579.88;;;21.99;73.85
29461;BME280;16428;47.836;35.106;2023-06-22T04:17:23;101573.63;;;22.10;74.38
29461;BME280;16428;47.836;35.106;2023-06-22T04:19:52;101587.47;;;22.15;71.18
29461;BME280;16428;47.836;35.106;2023-06-22T04:22:19;101586.13;;;22.18;72.50
29461;BME280;16428;47.836;35.106;2023-06-22T04:24:46;101592.34;;;22.25;71.45
29461;BME280;16428;47.836;35.106;2023-06-22T04:27:13;101592.13;;;22.26;73.08
29461;BME280;16428;47.836;35.106;2023-06-22T04:29:40;101590.47;;;22.25;72.26
29461;BME280;16428;47.836;35.106;2023-06-22T04:32:17;101592.97;;;22.27;71.24
29461;BME280;16428;47.836;35.106;2023-06-22T04:34:44;101601.06;;;22.33;72.79
29461;BME280;16428;47.836;35.106;2023-06-22T04:37:11;101598.13;;;22.46;70.90
29461;BME280;16428;47.836;35.106;2023-06-22T04:39:43;101596.88;;;22.31;70.67
29461;BME280;16428;47.836;35.106;2023-06-22T04:42:12;101605.38;;;22.41;71.06
29461;BME280;16428;47.836;35.106;2023-06-22T04:44:39;101602.88;;;22.39;69.43
29461;BME280;16428;47.836;35.106;2023-06-22T04:47:09;101604.81;;;22.51;71.96
29461;BME280;16428;47.836;35.106;2023-06-22T04:49:37;101610.06;;;22.64;72.61
29461;BME280;16428;47.836;35.106;2023-06-22T04:52:09;101605.19;;;22.66;71.27
29461;BME280;16428;47.836;35.106;2023-06-22T04:54:38;101604.06;;;22.85;69.91
29461;BME280;16428;47.836;35.106;2023-06-22T04:57:07;101614.06;;;22.79;70.72
29461;BME280;16428;47.836;35.106;2023-06-22T04:59:38;101616.34;;;22.83;70.75
29461;BME280;16428;47.836;35.106;2023-06-22T05:02:09;101615.72;;;22.80;70.04
29461;BME280;16428;47.836;35.106;2023-06-22T05:04:36;101625.06;;;22.91;71.23
29461;BME280;16428;47.836;35.106;2023-06-22T05:07:06;101622.88;;;22.93;70.31
29461;BME280;16428;47.836;35.106;2023-06-22T05:09:33;101630.06;;;23.06;70.57
29461;BME280;16428;47.836;35.106;2023-06-22T05:12:02;101628.75;;;23.08;70.91
29461;BME280;16428;47.836;35.106;2023-06-22T05:14:33;101628.28;;;23.00;71.27
29461;BME280;16428;47.836;35.106;2023-06-22T05:17:01;101629.09;;;23.00;70.61
29461;BME280;16428;47.836;35.106;2023-06-22T05:19:31;101636.25;;;23.13;71.71
29461;BME280;16428;47.836;35.106;2023-06-22T05:22:01;101641.50;;;23.14;70.42
29461;BME280;16428;47.836;35.106;2023-06-22T05:24:28;101637.34;;;23.35;70.96
29461;BME280;16428;47.836;35.106;2023-06-22T05:26:55;101640.31;;;23.45;70.61
29461;BME280;16428;47.836;35.106;2023-06-22T05:29:23;101639.69;;;23.43;72.00
29461;BME280;16428;47.836;35.106;2023-06-22T05:31:50;101643.06;;;23.57;71.37
29461;BME280;16428;47.836;35.106;2023-06-22T05:34:17;101645.69;;;23.64;70.45
29461;BME280;16428;47.836;35.106;2023-06-22T05:36:44;101641.72;;;23.71;70.48
29461;BME280;16428;47.836;35.106;2023-06-22T05:39:12;101638.97;;;23.71;69.68
29461;BME280;16428;47.836;35.106;2023-06-22T05:41:45;101638.84;;;23.78;69.79
29461;BME280;16428;47.836;35.106;2023-06-22T05:44:13;101635.88;;;23.79;68.39
29461;BME280;16428;47.836;35.106;2023-06-22T05:46:42;101642.16;;;23.92;68.30
29461;BME280;16428;47.836;35.106;2023-06-22T05:49:14;101638.69;;;23.96;68.13
29461;BME280;16428;47.836;35.106;2023-06-22T05:51:43;101633.88;;;24.03;67.59
29461;BME280;16428;47.836;35.106;2023-06-22T05:54:10;101636.72;;;24.08;64.94
29461;BME280;16428;47.836;35.106;2023-06-22T05:56:41;101644.56;;;24.16;66.99
29461;BME280;16428;47.836;35.106;2023-06-22T05:59:08;101639.31;;;24.15;62.88
29461;BME280;16428;47.836;35.106;2023-06-22T06:01:35;101639.81;;;24.24;66.00
29461;BME280;16428;47.836;35.106;2023-06-22T06:04:03;101641.47;;;24.25;61.56
29461;BME280;16428;47.836;35.106;2023-06-22T06:06:34;101649.00;;;24.46;61.36
29461;BME280;16428;47.836;35.106;2023-06-22T06:09:04;101649.34;;;24.49;59.92
29461;BME280;16428;47.836;35.106;2023-06-22T06:11:32;101641.88;;;24.62;60.00
29461;BME280;16428;47.836;35.106;2023-06-22T06:14:00;101643.53;;;24.63;58.04
29461;BME280;16428;47.836;35.106;2023-06-22T06:16:27;101643.75;;;24.73;59.30
29461;BME280;16428;47.836;35.106;2023-06-22T06:18:54;101638.38;;;24.66;58.19
29461;BME280;16428;47.836;35.106;2023-06-22T06:21:23;101639.44;;;24.94;59.28
29461;BME280;16428;47.836;35.106;2023-06-22T06:23:50;101635.09;;;24.98;59.39
29461;BME280;16428;47.836;35.106;2023-06-22T06:26:17;101634.94;;;25.04;58.70
29461;BME280;16428;47.836;35.106;2023-06-22T06:28:45;101638.00;;;25.08;57.86
29461;BME280;16428;47.836;35.106;2023-06-22T06:31:12;101636.84;;;25.20;57.45
29461;BME280;16428;47.836;35.106;2023-06-22T06:33:44;101637.59;;;25.33;56.54
29461;BME280;16428;47.836;35.106;2023-06-22T06:36:11;101630.53;;;25.42;57.52
29461;BME280;16428;47.836;35.106;2023-06-22T06:38:38;101634.47;;;25.46;57.02
29461;BME280;16428;47.836;35.106;2023-06-22T06:41:05;101629.84;;;25.51;56.38
29461;BME280;16428;47.836;35.106;2023-06-22T06:43:33;101636.69;;;25.66;57.57
29461;BME280;16428;47.836;35.106;2023-06-22T06:46:00;101637.91;;;25.75;57.61
29461;BME280;16428;47.836;35.106;2023-06-22T06:48:32;101640.53;;;25.86;55.97
29461;BME280;16428;47.836;35.106;2023-06-22T06:50:59;101643.44;;;25.97;56.27
29461;BME280;16428;47.836;35.106;2023-06-22T06:53:27;101639.13;;;26.06;57.39
29461;BME280;16428;47.836;35.106;2023-06-22T06:55:55;101643.44;;;25.97;54.18
29461;BME280;16428;47.836;35.106;2023-06-22T06:58:23;101639.63;;;26.03;52.36
29461;BME280;16428;47.836;35.106;2023-06-22T07:00:50;101633.69;;;26.11;54.44
29461;BME280;16428;47.836;35.106;2023-06-22T07:03:17;101642.13;;;26.26;52.93
29461;BME280;16428;47.836;35.106;2023-06-22T07:05:45;101643.47;;;26.23;53.79
29461;BME280;16428;47.836;35.106;2023-06-22T07:08:12;101647.25;;;26.39;55.00
29461;BME280;16428;47.836;35.106;2023-06-22T07:10:40;101655.81;;;26.43;54.24
29461;BME280;16428;47.836;35.106;2023-06-22T07:13:07;101651.91;;;26.66;55.39
29461;BME280;16428;47.836;35.106;2023-06-22T07:15:34;101655.22;;;26.68;56.07
29461;BME280;16428;47.836;35.106;2023-06-22T07:18:02;101657.50;;;26.76;53.46
29461;BME280;16428;47.836;35.106;2023-06-22T07:20:29;101651.53;;;26.89;54.08
29461;BME280;16428;47.836;35.106;2023-06-22T07:22:56;101660.53;;;27.01;55.06
29461;BME280;16428;47.836;35.106;2023-06-22T07:25:25;101659.91;;;26.94;53.33
29461;BME280;16428;47.836;35.106;2023-06-22T07:28:01;101658.34;;;27.08;53.66
29461;BME280;16428;47.836;35.106;2023-06-22T07:30:33;101650.19;;;27.18;55.08
29461;BME280;16428;47.836;35.106;2023-06-22T07:33:01;101661.78;;;27.25;53.44
29461;BME280;16428;47.836;35.106;2023-06-22T07:35:35;101652.63;;;27.20;50.71
29461;BME280;16428;47.836;35.106;2023-06-22T07:38:02;101655.78;;;26.96;49.09
29461;BME280;16428;47.836;35.106;2023-06-22T07:40:32;101658.16;;;27.20;52.79
29461;BME280;16428;47.836;35.106;2023-06-22T07:43:01;101655.13;;;27.21;53.45
29461;BME280;16428;47.836;35.106;2023-06-22T07:45:29;101662.69;;;27.36;50.26
29461;BME280;16428;47.836;35.106;2023-06-22T07:47:56;101657.47;;;27.35;50.10
29461;BME280;16428;47.836;35.106;2023-06-22T07:50:23;101657.47;;;27.40;50.13
29461;BME280;16428;47.836;35.106;2023-06-22T07:52:50;101657.47;;;27.40;52.27
29461;BME280;16428;47.836;35.106;2023-06-22T07:55:19;101670.53;;;27.54;51.94
29461;BME280;16428;47.836;35.106;2023-06-22T07:57:48;101672.56;;;27.64;52.11
29461;BME280;16428;47.836;35.106;2023-06-22T08:00:16;101672.19;;;27.55;50.80
29461;BME280;16428;47.836;35.106;2023-06-22T08:02:45;101673.66;;;27.63;49.83
29461;BME280;16428;47.836;35.106;2023-06-22T08:05:14;101670.94;;;27.73;51.26
29461;BME280;16428;47.836;35.106;2023-06-22T08:08:00;101670.72;;;27.85;49.95
29461;BME280;16428;47.836;35.106;2023-06-22T08:10:28;101670.66;;;27.64;44.90
29461;BME280;16428;47.836;35.106;2023-06-22T08:12:55;101664.91;;;27.81;47.90
29461;BME280;16428;47.836;35.106;2023-06-22T08:15:22;101672.41;;;27.96;47.93
29461;BME280;16428;47.836;35.106;2023-06-22T08:17:49;101664.75;;;28.08;46.60
29461;BME280;16428;47.836;35.106;2023-06-22T08:20:16;101662.22;;;27.96;45.70
29461;BME280;16428;47.836;35.106;2023-06-22T08:22:44;101663.09;;;28.07;48.14
29461;BME280;16428;47.836;35.106;2023-06-22T08:25:11;101665.66;;;28.19;48.00
29461;BME280;16428;47.836;35.106;2023-06-22T08:27:40;101651.88;;;28.34;46.29
29461;BME280;16428;47.836;35.106;2023-06-22T08:30:11;101663.22;;;28.48;46.02
29461;BME280;16428;47.836;35.106;2023-06-22T08:32:39;101661.59;;;28.52;47.10
29461;BME280;16428;47.836;35.106;2023-06-22T08:35:07;101662.97;;;28.64;47.86
29461;BME280;16428;47.836;35.106;2023-06-22T08:37:37;101666.91;;;28.84;45.66
29461;BME280;16428;47.836;35.106;2023-06-22T08:40:09;101652.50;;;28.92;43.66
29461;BME280;16428;47.836;35.106;2023-06-22T08:42:39;101661.38;;;28.94;43.02
29461;BME280;16428;47.836;35.106;2023-06-22T08:45:07;101655.81;;;28.89;43.54
29461;BME280;16428;47.836;35.106;2023-06-22T08:47:35;101656.66;;;29.04;44.10
29461;BME280;16428;47.836;35.106;2023-06-22T08:50:02;101658.03;;;29.12;43.69
29461;BME280;16428;47.836;35.106;2023-06-22T08:52:31;101655.53;;;29.26;42.09
29461;BME280;16428;47.836;35.106;2023-06-22T08:54:58;101655.25;;;29.27;42.77
29461;BME280;16428;47.836;35.106;2023-06-22T08:57:29;101649.72;;;29.32;42.39
29461;BME280;16428;47.836;35.106;2023-06-22T08:59:57;101658.03;;;29.48;42.28
29461;BME280;16428;47.836;35.106;2023-06-22T09:02:27;101648.06;;;29.26;42.32
29461;BME280;16428;47.836;35.106;2023-06-22T09:04:58;101647.75;;;29.38;42.68
29461;BME280;16428;47.836;35.106;2023-06-22T09:07:26;101654.41;;;29.47;43.10
29461;BME280;16428;47.836;35.106;2023-06-22T09:09:54;101649.84;;;29.82;40.88
29461;BME280;16428;47.836;35.106;2023-06-22T09:12:22;101651.91;;;29.56;39.79
29461;BME280;16428;47.836;35.106;2023-06-22T09:14:53;101654.69;;;29.20;39.11
29461;BME280;16428;47.836;35.106;2023-06-22T09:17:20;101645.56;;;29.30;39.90
29461;BME280;16428;47.836;35.106;2023-06-22T09:19:47;101633.06;;;29.58;40.23
29461;BME280;16428;47.836;35.106;2023-06-22T09:22:16;101645.75;;;29.64;41.68
29461;BME280;16428;47.836;35.106;2023-06-22T09:24:43;101636.81;;;29.87;40.93
29461;BME280;16428;47.836;35.106;2023-06-22T09:27:11;101635.09;;;29.96;40.93
29461;BME280;16428;47.836;35.106;2023-06-22T09:29:39;101642.84;;;30.10;40.26
29461;BME280;16428;47.836;35.106;2023-06-22T09:32:08;101631.69;;;30.20;39.49
29461;BME280;16428;47.836;35.106;2023-06-22T09:34:35;101640.59;;;30.17;37.51
29461;BME280;16428;47.836;35.106;2023-06-22T09:37:03;101638.84;;;30.26;39.36
29461;BME280;16428;47.836;35.106;2023-06-22T09:39:31;101626.53;;;30.47;38.20
29461;BME280;16428;47.836;35.106;2023-06-22T09:41:59;101630.97;;;30.48;38.33
29461;BME280;16428;47.836;35.106;2023-06-22T09:44:29;101638.66;;;30.61;38.12
29461;BME280;16428;47.836;35.106;2023-06-22T09:46:57;101633.69;;;30.58;37.72
29461;BME280;16428;47.836;35.106;2023-06-22T09:49:24;101627.53;;;30.66;38.14
29461;BME280;16428;47.836;35.106;2023-06-22T09:52:11;101625.88;;;30.65;38.71
29461;BME280;16428;47.836;35.106;2023-06-22T09:54:40;101623.59;;;30.72;36.72
29461;BME280;16428;47.836;35.106;2023-06-22T09:57:07;101633.63;;;30.68;37.23
29461;BME280;16428;47.836;35.106;2023-06-22T09:59:35;101634.31;;;30.84;36.13
29461;BME280;16428;47.836;35.106;2023-06-22T10:02:02;101618.97;;;30.92;35.65
29461;BME280;16428;47.836;35.106;2023-06-22T10:04:29;101626.75;;;30.90;36.46
29461;BME280;16428;47.836;35.106;2023-06-22T10:06:57;101624.94;;;31.09;37.80
29461;BME280;16428;47.836;35.106;2023-06-22T10:09:24;101622.53;;;31.31;35.26
29461;BME280;16428;47.836;35.106;2023-06-22T10:11:51;101631.31;;;31.38;34.89
29461;BME280;16428;47.836;35.106;2023-06-22T10:14:19;101622.69;;;31.40;35.09
29461;BME280;16428;47.836;35.106;2023-06-22T10:16:48;101621.19;;;31.47;34.69
29461;BME280;16428;47.836;35.106;2023-06-22T10:19:15;101622.41;;;31.41;34.46
29461;BME280;16428;47.836;35.106;2023-06-22T10:21:45;101608.78;;;31.64;33.77
29461;BME280;16428;47.836;35.106;2023-06-22T10:24:12;101619.09;;;31.87;32.69
29461;BME280;16428;47.836;35.106;2023-06-22T10:26:39;101613.97;;;31.94;33.46
29461;BME280;16428;47.836;35.106;2023-06-22T10:29:08;101604.41;;;32.05;33.42
29461;BME280;16428;47.836;35.106;2023-06-22T10:31:38;101609.03;;;31.91;31.95
29461;BME280;16428;47.836;35.106;2023-06-22T10:34:05;101609.16;;;31.57;30.75
29461;BME280;16428;47.836;35.106;2023-06-22T10:36:33;101605.69;;;31.70;32.27
29461;BME280;16428;47.836;35.106;2023-06-22T10:39:00;101607.53;;;31.99;31.39
29461;BME280;16428;47.836;35.106;2023-06-22T10:41:28;101599.50;;;31.97;29.41
29461;BME280;16428;47.836;35.106;2023-06-22T10:43:59;101608.25;;;32.28;29.39
29461;BME280;16428;47.836;35.106;2023-06-22T10:46:27;101599.28;;;32.50;28.16
29461;BME280;16428;47.836;35.106;2023-06-22T10:48:56;101594.41;;;32.42;28.26
29461;BME280;16428;47.836;35.106;2023-06-22T10:51:25;101589.97;;;32.03;27.14
29461;BME280;16428;47.836;35.106;2023-06-22T10:53:58;101589.97;;;32.41;28.29
29461;BME280;16428;47.836;35.106;2023-06-22T10:56:26;101595.31;;;32.37;29.65
29461;BME280;16428;47.836;35.106;2023-06-22T10:58:53;101594.38;;;32.61;27.87
29461;BME280;16428;47.836;35.106;2023-06-22T11:01:22;101594.59;;;32.64;29.42
29461;BME280;16428;47.836;35.106;2023-06-22T11:04:03;101596.56;;;32.82;27.71
29461;BME280;16428;47.836;35.106;2023-06-22T11:06:32;101590.00;;;33.06;27.88
29461;BME280;16428;47.836;35.106;2023-06-22T11:09:00;101593.22;;;33.13;27.59
29461;BME280;16428;47.836;35.106;2023-06-22T11:11:49;101586.66;;;32.90;26.63
29461;BME280;16428;47.836;35.106;2023-06-22T11:14:20;101588.34;;;33.05;27.77
29461;BME280;16428;47.836;35.106;2023-06-22T11:16:48;101594.47;;;32.88;26.57
29461;BME280;16428;47.836;35.106;2023-06-22T11:19:15;101595.91;;;32.85;26.37
29461;BME280;16428;47.836;35.106;2023-06-22T11:21:42;101590.41;;;32.99;26.80
29461;BME280;16428;47.836;35.106;2023-06-22T11:24:10;101591.22;;;33.00;26.96
29461;BME280;16428;47.836;35.106;2023-06-22T11:26:37;101588.25;;;33.10;26.92
29461;BME280;16428;47.836;35.106;2023-06-22T11:29:06;101582.59;;;33.15;27.72
29461;BME280;16428;47.836;35.106;2023-06-22T11:31:36;101579.34;;;32.94;25.68
29461;BME280;16428;47.836;35.106;2023-06-22T11:34:04;101580.16;;;33.27;26.94
29461;BME280;16428;47.836;35.106;2023-06-22T11:36:31;101577.66;;;33.39;26.69
29461;BME280;16428;47.836;35.106;2023-06-22T11:39:02;101578.28;;;33.36;27.98
29461;BME280;16428;47.836;35.106;2023-06-22T11:41:32;101577.88;;;33.29;28.44
29461;BME280;16428;47.836;35.106;2023-06-22T11:43:59;101574.59;;;33.41;27.64
29461;BME280;16428;47.836;35.106;2023-06-22T11:46:28;101575.81;;;33.48;28.29
29461;BME280;16428;47.836;35.106;2023-06-22T11:48:55;101574.41;;;33.05;27.92
29461;BME280;16428;47.836;35.106;2023-06-22T11:51:22;101573.53;;;33.50;27.83
29461;BME280;16428;47.836;35.106;2023-06-22T11:53:49;101572.09;;;33.53;27.17
29461;BME280;16428;47.836;35.106;2023-06-22T11:56:17;101573.84;;;33.90;27.28
29461;BME280;16428;47.836;35.106;2023-06-22T11:58:44;101579.28;;;33.95;27.48
29461;BME280;16428;47.836;35.106;2023-06-22T12:01:11;101574.69;;;34.13;27.40
29461;BME280;16428;47.836;35.106;2023-06-22T12:03:42;101574.97;;;33.89;28.06
29461;BME280;16428;47.836;35.106;2023-06-22T12:06:11;101574.38;;;34.50;26.98
29461;BME280;16428;47.836;35.106;2023-06-22T12:08:38;101570.59;;;34.55;26.15
29461;BME280;16428;47.836;35.106;2023-06-22T12:11:07;101572.56;;;34.54;26.33
29461;BME280;16428;47.836;35.106;2023-06-22T12:13:34;101582.16;;;34.84;26.51
29461;BME280;16428;47.836;35.106;2023-06-22T12:16:02;101575.34;;;34.54;24.81
29461;BME280;16428;47.836;35.106;2023-06-22T12:18:30;101582.16;;;34.84;26.11
29461;BME280;16428;47.836;35.106;2023-06-22T12:20:57;101585.03;;;35.02;26.05
29461;BME280;16428;47.836;35.106;2023-06-22T12:23:25;101581.38;;;35.23;24.82
29461;BME280;16428;47.836;35.106;2023-06-22T12:25:53;101582.56;;;35.31;24.04
29461;BME280;16428;47.836;35.106;2023-06-22T12:28:21;101577.69;;;35.45;24.75
29461;BME280;16428;47.836;35.106;2023-06-22T12:30:50;101570.16;;;35.54;23.41
29461;BME280;16428;47.836;35.106;2023-06-22T12:33:19;101581.47;;;35.10;23.67
29461;BME280;16428;47.836;35.106;2023-06-22T12:35:46;101575.59;;;34.89;25.19
29461;BME280;16428;47.836;35.106;2023-06-22T12:38:16;101579.00;;;35.08;25.75
29461;BME280;16428;47.836;35.106;2023-06-22T12:40:43;101572.06;;;35.28;24.58
29461;BME280;16428;47.836;35.106;2023-06-22T12:43:11;101573.28;;;35.13;24.89
29461;BME280;16428;47.836;35.106;2023-06-22T12:45:38;101572.47;;;35.13;25.18
29461;BME280;16428;47.836;35.106;2023-06-22T12:48:05;101567.13;;;35.03;25.05